Aérodrome :
LOGIN :

S'inscrire | Disclaimer

   EN    FR    IT 

 










Légende :    VFR   VFR Marginal   IFR   IFR Intensif   IFR Très Intensif
Visi : 
Plafond : 
>= 8 km
>= 3000ft
5 à 8 km
1000 à 3000 ft
1500m à 5 km
500 à 1000 ft
800 à 1500m
200 à 500 ft
< 800m
< 200 ft
Symboles :   Orages  Brouillard  Fortes neiges  Fortes précipitations  Vent > 20 kt
SIGMETs :   Divers  Orages  Givrage  Turbulence  Onde Orograph.  Cendres Volcan.







- Altitude de l'aérodrome : 245 ft


ETHS - Fassberg

DERNIER METAR :
  • 151120Z 26009KT 5000 BR BKN009 BKN020 03/01 Q0995 GRN

METARs EXPIRÉS :
  • 151100Z 26009KT 5000 BR BKN009 BKN020 03/01 Q0995 GRN FCST CANCEL
  • 151020Z 27007KT 5000 BR BKN007 BKN023 03/01 Q0995 GRN GRN TEMPO YLO
  • 150920Z 25006KT 3700 BR SCT004 BKN008 BKN014 02/01 Q0994 GRN GRN TEMPO YLO
  • 150905Z 25007KT 3700 BR SCT003 BKN007 BKN035 02/01 Q0994 GRN GRN TEMPO YLO

TAF AMD TAF ETHS
Valide du 15 à 09h jusqu'au 15 à 18h UTC


150913Z 1509/1518 24005KT 4000 BR BKN010
TEMPO 1509/1518 22003KT 3000 BR BKN006
Pas de NOTAMs connus pour ce terrain.



MET'MAP, la Météo Aéronautique d'un coup d'oeil ! - Copyright ORBIFLY Décembre 2007 - Disclaimer

ORBIFLY MET'MAP TEAM :

Programmation & Développement : Alexandra Zaïnal
Conception & Développement : Baudouin d'Aumeries
Co-Programmation & Développement : Marc-Olivier Méhu
Soutien technique & logistique : Manuel Goepfert

Contact : metmap@orbifly.com




SOURCES & CREDITS :

   NOAA